createdAt,value
2019-03-25T00:00:04.666Z,50.6
2019-03-25T00:15:04.424Z,51
2019-03-25T00:30:04.414Z,50.9
2019-03-25T00:45:04.175Z,51.5
2019-03-25T01:00:04.535Z,51.5
2019-03-25T01:15:04.772Z,51.6
2019-03-25T01:30:04.447Z,51.9
2019-03-25T01:45:04.672Z,52.1
2019-03-25T02:00:04.462Z,52.7
2019-03-25T02:15:04.242Z,53
2019-03-25T02:30:04.120Z,52.9
2019-03-25T02:45:04.404Z,53.9
2019-03-25T03:00:04.735Z,54
2019-03-25T03:15:04.576Z,54
2019-03-25T03:30:05.042Z,54.2
2019-03-25T03:45:04.337Z,54.7
2019-03-25T04:00:05.005Z,54.8
2019-03-25T04:15:04.794Z,54.9
2019-03-25T04:30:04.421Z,55.3
2019-03-25T04:45:04.151Z,55.6
2019-03-25T05:00:04.704Z,55.6
2019-03-25T05:15:04.475Z,55.7
2019-03-25T05:30:04.655Z,56.1
2019-03-25T05:45:04.957Z,56.1
2019-03-25T06:00:04.199Z,56.4
2019-03-25T06:15:04.434Z,56.4
2019-03-25T06:30:05.069Z,56.6
2019-03-25T06:45:04.272Z,56.5
2019-03-25T07:00:04.516Z,56.4
2019-03-25T07:15:04.824Z,56.8
2019-03-25T07:30:04.736Z,57.3
2019-03-25T07:45:04.520Z,57.2
2019-03-25T08:00:14.133Z,57.5
2019-03-25T08:15:04.352Z,57.9
2019-03-25T08:30:04.317Z,57.9
2019-03-25T08:45:04.525Z,60.8
2019-03-25T09:00:04.287Z,56.1
2019-03-25T09:15:04.983Z,56.3
2019-03-25T09:30:04.953Z,56.1
2019-03-25T09:45:04.710Z,58.1
2019-03-25T10:00:04.459Z,54.8
2019-03-25T10:15:04.155Z,54.8
2019-03-25T10:30:04.666Z,52.5
2019-03-25T10:45:05.023Z,52.3
2019-03-25T11:00:04.752Z,50.9
2019-03-25T11:15:05.059Z,49
2019-03-25T11:30:05.834Z,49.1
2019-03-25T11:45:04.494Z,48.3
2019-03-25T12:00:04.762Z,48.1
2019-03-25T12:15:04.907Z,46.7
2019-03-25T12:30:04.304Z,46
2019-03-25T12:45:05.096Z,47.2
2019-03-25T13:00:04.334Z,45.1
2019-03-25T13:15:04.654Z,44.7
2019-03-25T13:30:04.692Z,45.7
2019-03-25T13:45:04.943Z,44.8
2019-03-25T14:00:04.718Z,44.3
2019-03-25T14:15:04.485Z,43.9
2019-03-25T14:30:15.181Z,44.2
2019-03-25T14:45:05.047Z,43.6
2019-03-25T15:00:04.746Z,43.3
2019-03-25T15:15:04.896Z,43.4
2019-03-25T15:30:04.972Z,43.3
2019-03-25T15:45:04.130Z,42
2019-03-25T16:00:04.903Z,41.9
2019-03-25T16:15:04.159Z,43
2019-03-25T16:30:04.683Z,43.5
2019-03-25T16:45:04.501Z,43.8
2019-03-25T17:00:04.742Z,44.4
2019-03-25T17:15:04.463Z,44.4
2019-03-25T17:30:05.029Z,44.8
2019-03-25T17:45:04.259Z,44.9
2019-03-25T18:00:04.530Z,44.9
2019-03-25T18:15:04.261Z,45
2019-03-25T18:30:04.242Z,45.4
2019-03-25T18:45:05.041Z,45.5
2019-03-25T19:00:04.806Z,45.5
2019-03-25T19:15:04.136Z,45.8
2019-03-25T19:30:04.542Z,45.6
2019-03-25T19:45:04.903Z,45.7
2019-03-25T20:00:04.715Z,45.9
2019-03-25T20:15:04.700Z,46
2019-03-25T20:30:04.317Z,46.4
2019-03-25T20:45:04.096Z,46.6
2019-03-25T21:00:05.015Z,46.9
2019-03-25T21:15:05.058Z,47.4
2019-03-25T21:30:04.366Z,47.5
2019-03-25T21:45:04.368Z,48.3
2019-03-25T22:00:04.756Z,48.3
2019-03-25T22:15:04.139Z,48.9
2019-03-25T22:30:05.008Z,49.6
2019-03-25T22:45:04.207Z,50.1
2019-03-25T23:00:05.028Z,50.5
2019-03-25T23:30:04.697Z,51.6
2019-03-25T23:45:05.022Z,51.7
